Moyer Aviation Incorporated

Pocono Mountains Airport

188 Airport Rd. Tobyhanna, PA 18466 

P: 570-839-7161
800-321-5890
F: 570-839-7162

Weather

Weather

Pocono Weather

KMPO 232053Z AUTO 31005KT 10SM CLR 00/M07 A2995 RMK AO2 SLP165 T00001072 55013

Allentown Weather

Wilkes-Barre Weather

KAVP 232054Z 00000KT 10SM OVC095 02/M07 A3001 RMK AO2 SLP168 T00171067 55013


* required field

Contact Us